Pagina principale
METAR-TAF:

METAR-TAF

Aeroporti :

Aeroporto di Pantelleria

Pantelleria, Italia

latitudine: 36-49N, longitudine: 011-58E, altezza: 191 m

Osservazione

Il bollettino è stato emesso 8 ore e 11 minuti fa, alle 18:50 UTC
Vento 5 kt da ovest
Temperature 12°C
Umidità 88%
Pressione 1030 hPa
Visibilità 10 km o più
Poco nuvoloso ad un'altezza di 1000 ft

METAR: LICG 231850Z 28005KT 9999 FEW010 12/10 Q1030

Ora: 04:01 (03:01 UTC)

Previsione

Il bollettino è stato emesso 13 ore e 1 minuti fa, alle 14:00 UTC
Previsione valida dal 23 alle 15 UTC al 23 alle 24 UTC
Vento 10 kt da nord/nord-ovest
Visibilità 10 km o più
Poco nuvoloso ad un'altezza di 4000 ft

TAF: LICG 231400Z 2315/2324 34010KT 9999 FEW040

Osservazioni e previsioni meteorologiche di più di 4000 aeroporti (messaggi METAR e TAF).

Le stazioni disponibili sono rappresentate dai dischi gialli e rossi sulla carta.

Puntare il mouse per vedere il nome della stazione.

Clicca sopra per visualizzare le osservazioni e previsioni meteorologiche.

Per cambiare la mappa : fare clic sui pulsanti verdi con una croce nera per ingrandire, il pulsante verde con un trattino per diminuire, o sulla freccia verde per le mappe adiacenti.


METAR-TAF: